sensor_id;sensor_type;location;lat;lon;timestamp;P1;durP1;ratioP1;P2;durP2;ratioP2
6406;SDS011;3236;51.022;6.818;2023-08-01T00:00:45;3.72;;;0.90;;
6406;SDS011;3236;51.022;6.818;2023-08-01T00:03:12;1.33;;;1.02;;
6406;SDS011;3236;51.022;6.818;2023-08-01T00:05:39;7.63;;;0.90;;
6406;SDS011;3236;51.022;6.818;2023-08-01T00:08:09;1.58;;;0.63;;
6406;SDS011;3236;51.022;6.818;2023-08-01T00:10:39;4.03;;;0.80;;
6406;SDS011;3236;51.022;6.818;2023-08-01T00:13:07;0.60;;;0.60;;
6406;SDS011;3236;51.022;6.818;2023-08-01T00:15:35;0.85;;;0.60;;
6406;SDS011;3236;51.022;6.818;2023-08-01T00:18:02;1.15;;;0.47;;
6406;SDS011;3236;51.022;6.818;2023-08-01T00:20:29;0.73;;;0.52;;
6406;SDS011;3236;51.022;6.818;2023-08-01T00:22:56;1.70;;;0.52;;
6406;SDS011;3236;51.022;6.818;2023-08-01T00:25:23;3.05;;;0.50;;
6406;SDS011;3236;51.022;6.818;2023-08-01T00:27:52;0.73;;;0.50;;
6406;SDS011;3236;51.022;6.818;2023-08-01T00:30:19;1.73;;;0.57;;
6406;SDS011;3236;51.022;6.818;2023-08-01T00:32:47;0.88;;;0.60;;
6406;SDS011;3236;51.022;6.818;2023-08-01T00:35:14;1.10;;;0.40;;
6406;SDS011;3236;51.022;6.818;2023-08-01T00:37:41;1.42;;;0.57;;
6406;SDS011;3236;51.022;6.818;2023-08-01T00:40:08;4.10;;;0.52;;
6406;SDS011;3236;51.022;6.818;2023-08-01T00:42:36;2.05;;;0.77;;
6406;SDS011;3236;51.022;6.818;2023-08-01T00:45:05;7.70;;;1.05;;
6406;SDS011;3236;51.022;6.818;2023-08-01T00:47:33;1.08;;;0.40;;
6406;SDS011;3236;51.022;6.818;2023-08-01T00:50:01;2.42;;;0.50;;
6406;SDS011;3236;51.022;6.818;2023-08-01T00:52:29;1.02;;;0.40;;
6406;SDS011;3236;51.022;6.818;2023-08-01T00:54:56;0.98;;;0.52;;
6406;SDS011;3236;51.022;6.818;2023-08-01T00:57:23;1.35;;;0.40;;
6406;SDS011;3236;51.022;6.818;2023-08-01T00:59:50;1.88;;;0.65;;
6406;SDS011;3236;51.022;6.818;2023-08-01T01:02:20;3.20;;;0.70;;
6406;SDS011;3236;51.022;6.818;2023-08-01T01:04:47;1.73;;;0.63;;
6406;SDS011;3236;51.022;6.818;2023-08-01T01:07:14;1.95;;;0.50;;
6406;SDS011;3236;51.022;6.818;2023-08-01T01:09:43;0.30;;;0.30;;
6406;SDS011;3236;51.022;6.818;2023-08-01T01:12:10;1.73;;;0.50;;
6406;SDS011;3236;51.022;6.818;2023-08-01T01:14:37;2.97;;;0.50;;
6406;SDS011;3236;51.022;6.818;2023-08-01T01:17:05;2.08;;;0.75;;
6406;SDS011;3236;51.022;6.818;2023-08-01T01:19:33;0.68;;;0.30;;
6406;SDS011;3236;51.022;6.818;2023-08-01T01:22:17;0.60;;;0.40;;
6406;SDS011;3236;51.022;6.818;2023-08-01T01:24:45;0.82;;;0.40;;
6406;SDS011;3236;51.022;6.818;2023-08-01T01:27:14;0.70;;;0.40;;
6406;SDS011;3236;51.022;6.818;2023-08-01T01:29:43;0.47;;;0.40;;
6406;SDS011;3236;51.022;6.818;2023-08-01T01:32:11;5.53;;;0.57;;
6406;SDS011;3236;51.022;6.818;2023-08-01T01:34:38;2.85;;;0.45;;
6406;SDS011;3236;51.022;6.818;2023-08-01T01:37:06;0.55;;;0.50;;
6406;SDS011;3236;51.022;6.818;2023-08-01T01:39:34;0.43;;;0.43;;
6406;SDS011;3236;51.022;6.818;2023-08-01T01:42:01;1.60;;;0.60;;
6406;SDS011;3236;51.022;6.818;2023-08-01T01:44:28;0.88;;;0.70;;
6406;SDS011;3236;51.022;6.818;2023-08-01T01:46:56;0.95;;;0.50;;
6406;SDS011;3236;51.022;6.818;2023-08-01T01:49:23;1.38;;;0.65;;
6406;SDS011;3236;51.022;6.818;2023-08-01T01:51:51;1.13;;;0.68;;
6406;SDS011;3236;51.022;6.818;2023-08-01T01:54:18;1.77;;;0.70;;
6406;SDS011;3236;51.022;6.818;2023-08-01T01:56:46;0.90;;;0.55;;
6406;SDS011;3236;51.022;6.818;2023-08-01T01:59:13;0.60;;;0.60;;
6406;SDS011;3236;51.022;6.818;2023-08-01T02:01:40;3.33;;;0.70;;
6406;SDS011;3236;51.022;6.818;2023-08-01T02:04:07;0.82;;;0.60;;
6406;SDS011;3236;51.022;6.818;2023-08-01T02:06:34;0.35;;;0.35;;
6406;SDS011;3236;51.022;6.818;2023-08-01T02:09:02;3.78;;;0.73;;
6406;SDS011;3236;51.022;6.818;2023-08-01T02:11:29;1.08;;;0.73;;
6406;SDS011;3236;51.022;6.818;2023-08-01T02:13:58;0.60;;;0.55;;
6406;SDS011;3236;51.022;6.818;2023-08-01T02:16:26;1.88;;;0.50;;
6406;SDS011;3236;51.022;6.818;2023-08-01T02:18:53;0.73;;;0.73;;
6406;SDS011;3236;51.022;6.818;2023-08-01T02:21:21;1.10;;;1.00;;
6406;SDS011;3236;51.022;6.818;2023-08-01T02:23:48;1.92;;;0.90;;
6406;SDS011;3236;51.022;6.818;2023-08-01T02:26:15;1.45;;;0.98;;
6406;SDS011;3236;51.022;6.818;2023-08-01T02:28:42;0.80;;;0.80;;
6406;SDS011;3236;51.022;6.818;2023-08-01T02:31:11;1.55;;;1.00;;
6406;SDS011;3236;51.022;6.818;2023-08-01T02:33:38;0.90;;;0.85;;
6406;SDS011;3236;51.022;6.818;2023-08-01T02:36:05;2.58;;;1.05;;
6406;SDS011;3236;51.022;6.818;2023-08-01T02:38:32;2.90;;;1.60;;
6406;SDS011;3236;51.022;6.818;2023-08-01T02:40:59;3.08;;;1.00;;
6406;SDS011;3236;51.022;6.818;2023-08-01T02:43:26;1.88;;;1.38;;
6406;SDS011;3236;51.022;6.818;2023-08-01T02:45:53;3.92;;;1.40;;
6406;SDS011;3236;51.022;6.818;2023-08-01T02:48:22;2.40;;;1.08;;
6406;SDS011;3236;51.022;6.818;2023-08-01T02:50:49;2.13;;;1.15;;
6406;SDS011;3236;51.022;6.818;2023-08-01T02:53:16;1.10;;;1.00;;
6406;SDS011;3236;51.022;6.818;2023-08-01T02:55:43;2.95;;;1.55;;
6406;SDS011;3236;51.022;6.818;2023-08-01T02:58:11;1.55;;;1.25;;
6406;SDS011;3236;51.022;6.818;2023-08-01T03:00:39;4.07;;;1.90;;
6406;SDS011;3236;51.022;6.818;2023-08-01T03:03:06;2.45;;;1.60;;
6406;SDS011;3236;51.022;6.818;2023-08-01T03:05:36;2.67;;;1.95;;
6406;SDS011;3236;51.022;6.818;2023-08-01T03:08:03;4.47;;;2.10;;
6406;SDS011;3236;51.022;6.818;2023-08-01T03:10:30;4.88;;;2.00;;
6406;SDS011;3236;51.022;6.818;2023-08-01T03:12:57;2.33;;;2.03;;
6406;SDS011;3236;51.022;6.818;2023-08-01T03:15:24;2.38;;;2.08;;
6406;SDS011;3236;51.022;6.818;2023-08-01T03:17:51;4.30;;;2.42;;
6406;SDS011;3236;51.022;6.818;2023-08-01T03:20:18;4.40;;;2.83;;
6406;SDS011;3236;51.022;6.818;2023-08-01T03:22:47;6.97;;;2.75;;
6406;SDS011;3236;51.022;6.818;2023-08-01T03:25:14;5.60;;;3.35;;
6406;SDS011;3236;51.022;6.818;2023-08-01T03:27:41;3.92;;;3.05;;
6406;SDS011;3236;51.022;6.818;2023-08-01T03:30:09;4.80;;;2.80;;
6406;SDS011;3236;51.022;6.818;2023-08-01T03:32:36;3.58;;;2.85;;
6406;SDS011;3236;51.022;6.818;2023-08-01T03:35:04;7.20;;;3.30;;
6406;SDS011;3236;51.022;6.818;2023-08-01T03:37:32;5.75;;;3.60;;
6406;SDS011;3236;51.022;6.818;2023-08-01T03:40:00;9.18;;;5.10;;
6406;SDS011;3236;51.022;6.818;2023-08-01T03:42:27;12.68;;;6.05;;
6406;SDS011;3236;51.022;6.818;2023-08-01T03:44:54;11.60;;;6.13;;
6406;SDS011;3236;51.022;6.818;2023-08-01T03:47:22;8.20;;;6.13;;
6406;SDS011;3236;51.022;6.818;2023-08-01T03:49:49;12.77;;;5.70;;
6406;SDS011;3236;51.022;6.818;2023-08-01T03:52:16;10.13;;;6.75;;
6406;SDS011;3236;51.022;6.818;2023-08-01T03:54:43;15.48;;;6.45;;
6406;SDS011;3236;51.022;6.818;2023-08-01T03:57:11;14.48;;;7.75;;
6406;SDS011;3236;51.022;6.818;2023-08-01T03:59:38;18.35;;;7.60;;
6406;SDS011;3236;51.022;6.818;2023-08-01T04:02:05;14.32;;;7.50;;
6406;SDS011;3236;51.022;6.818;2023-08-01T04:04:32;11.65;;;8.10;;
6406;SDS011;3236;51.022;6.818;2023-08-01T04:06:59;11.43;;;6.45;;
6406;SDS011;3236;51.022;6.818;2023-08-01T04:09:26;16.13;;;8.02;;
6406;SDS011;3236;51.022;6.818;2023-08-01T04:11:53;17.42;;;7.97;;
6406;SDS011;3236;51.022;6.818;2023-08-01T04:14:22;13.05;;;7.28;;
6406;SDS011;3236;51.022;6.818;2023-08-01T04:16:49;14.93;;;6.95;;
6406;SDS011;3236;51.022;6.818;2023-08-01T04:19:16;15.20;;;6.93;;
6406;SDS011;3236;51.022;6.818;2023-08-01T04:21:43;11.85;;;6.53;;
6406;SDS011;3236;51.022;6.818;2023-08-01T04:24:10;14.60;;;7.22;;
6406;SDS011;3236;51.022;6.818;2023-08-01T04:26:37;12.48;;;5.88;;
6406;SDS011;3236;51.022;6.818;2023-08-01T04:29:04;14.75;;;6.57;;
6406;SDS011;3236;51.022;6.818;2023-08-01T04:31:33;14.32;;;6.50;;
6406;SDS011;3236;51.022;6.818;2023-08-01T04:34:00;17.80;;;7.63;;
6406;SDS011;3236;51.022;6.818;2023-08-01T04:36:27;9.95;;;7.10;;
6406;SDS011;3236;51.022;6.818;2023-08-01T04:38:54;15.85;;;7.18;;
6406;SDS011;3236;51.022;6.818;2023-08-01T04:41:21;10.88;;;6.35;;
6406;SDS011;3236;51.022;6.818;2023-08-01T04:43:48;10.70;;;6.32;;
6406;SDS011;3236;51.022;6.818;2023-08-01T04:46:15;10.50;;;5.70;;
6406;SDS011;3236;51.022;6.818;2023-08-01T04:48:44;10.48;;;5.60;;
6406;SDS011;3236;51.022;6.818;2023-08-01T04:51:11;14.70;;;6.35;;
6406;SDS011;3236;51.022;6.818;2023-08-01T04:53:38;12.88;;;5.60;;
6406;SDS011;3236;51.022;6.818;2023-08-01T04:56:05;10.23;;;5.10;;
6406;SDS011;3236;51.022;6.818;2023-08-01T04:58:32;16.50;;;5.50;;
6406;SDS011;3236;51.022;6.818;2023-08-01T05:00:59;13.07;;;5.53;;
6406;SDS011;3236;51.022;6.818;2023-08-01T05:03:26;15.90;;;6.22;;
6406;SDS011;3236;51.022;6.818;2023-08-01T05:05:55;13.90;;;5.38;;
6406;SDS011;3236;51.022;6.818;2023-08-01T05:08:22;10.52;;;6.07;;
6406;SDS011;3236;51.022;6.818;2023-08-01T05:10:49;10.63;;;5.93;;
6406;SDS011;3236;51.022;6.818;2023-08-01T05:13:16;16.27;;;5.70;;
6406;SDS011;3236;51.022;6.818;2023-08-01T05:15:44;13.85;;;6.80;;
6406;SDS011;3236;51.022;6.818;2023-08-01T05:18:12;9.93;;;5.72;;
6406;SDS011;3236;51.022;6.818;2023-08-01T05:20:40;14.50;;;5.40;;
6406;SDS011;3236;51.022;6.818;2023-08-01T05:23:08;8.43;;;5.45;;
6406;SDS011;3236;51.022;6.818;2023-08-01T05:25:35;13.07;;;6.57;;
6406;SDS011;3236;51.022;6.818;2023-08-01T05:28:02;10.02;;;5.28;;
6406;SDS011;3236;51.022;6.818;2023-08-01T05:30:29;14.82;;;6.22;;
6406;SDS011;3236;51.022;6.818;2023-08-01T05:32:57;11.07;;;5.63;;
6406;SDS011;3236;51.022;6.818;2023-08-01T05:35:24;10.35;;;5.68;;
6406;SDS011;3236;51.022;6.818;2023-08-01T05:37:51;13.10;;;5.80;;
6406;SDS011;3236;51.022;6.818;2023-08-01T05:40:19;7.22;;;5.25;;
6406;SDS011;3236;51.022;6.818;2023-08-01T05:42:46;5.10;;;3.53;;
6406;SDS011;3236;51.022;6.818;2023-08-01T05:45:14;6.30;;;4.70;;
6406;SDS011;3236;51.022;6.818;2023-08-01T05:47:41;8.40;;;4.20;;
6406;SDS011;3236;51.022;6.818;2023-08-01T05:50:08;6.63;;;3.83;;
6406;SDS011;3236;51.022;6.818;2023-08-01T05:52:36;8.40;;;4.13;;
6406;SDS011;3236;51.022;6.818;2023-08-01T05:55:03;9.40;;;4.53;;
6406;SDS011;3236;51.022;6.818;2023-08-01T05:57:32;7.35;;;3.28;;
6406;SDS011;3236;51.022;6.818;2023-08-01T05:59:59;8.80;;;3.70;;
6406;SDS011;3236;51.022;6.818;2023-08-01T06:02:28;5.93;;;4.35;;
6406;SDS011;3236;51.022;6.818;2023-08-01T06:04:55;10.80;;;4.03;;
6406;SDS011;3236;51.022;6.818;2023-08-01T06:07:22;7.43;;;4.40;;
6406;SDS011;3236;51.022;6.818;2023-08-01T06:09:50;14.70;;;4.57;;
6406;SDS011;3236;51.022;6.818;2023-08-01T06:12:18;11.70;;;4.05;;
6406;SDS011;3236;51.022;6.818;2023-08-01T06:14:46;14.43;;;4.47;;
6406;SDS011;3236;51.022;6.818;2023-08-01T06:17:14;7.03;;;4.35;;
6406;SDS011;3236;51.022;6.818;2023-08-01T06:19:41;10.82;;;4.90;;
6406;SDS011;3236;51.022;6.818;2023-08-01T06:22:08;10.30;;;5.93;;
6406;SDS011;3236;51.022;6.818;2023-08-01T06:24:35;12.85;;;5.00;;
6406;SDS011;3236;51.022;6.818;2023-08-01T06:27:03;7.65;;;3.45;;
6406;SDS011;3236;51.022;6.818;2023-08-01T06:29:30;12.07;;;4.43;;
6406;SDS011;3236;51.022;6.818;2023-08-01T06:31:59;12.07;;;4.53;;
6406;SDS011;3236;51.022;6.818;2023-08-01T06:34:27;15.35;;;5.35;;
6406;SDS011;3236;51.022;6.818;2023-08-01T06:36:54;10.02;;;4.18;;
6406;SDS011;3236;51.022;6.818;2023-08-01T06:39:21;12.90;;;4.65;;
6406;SDS011;3236;51.022;6.818;2023-08-01T06:42:03;13.60;;;4.75;;
6406;SDS011;3236;51.022;6.818;2023-08-01T06:44:31;9.70;;;4.82;;
6406;SDS011;3236;51.022;6.818;2023-08-01T06:46:58;11.88;;;4.60;;
6406;SDS011;3236;51.022;6.818;2023-08-01T06:49:25;11.27;;;4.93;;
6406;SDS011;3236;51.022;6.818;2023-08-01T06:51:52;11.10;;;4.35;;
6406;SDS011;3236;51.022;6.818;2023-08-01T06:54:20;14.40;;;4.43;;
6406;SDS011;3236;51.022;6.818;2023-08-01T06:56:47;10.77;;;4.40;;
6406;SDS011;3236;51.022;6.818;2023-08-01T06:59:15;10.77;;;4.43;;
6406;SDS011;3236;51.022;6.818;2023-08-01T07:01:45;11.15;;;4.00;;
6406;SDS011;3236;51.022;6.818;2023-08-01T07:04:13;12.95;;;4.15;;
6406;SDS011;3236;51.022;6.818;2023-08-01T07:06:40;7.75;;;4.90;;
6406;SDS011;3236;51.022;6.818;2023-08-01T07:09:07;13.88;;;4.82;;
6406;SDS011;3236;51.022;6.818;2023-08-01T07:11:35;8.25;;;4.05;;
6406;SDS011;3236;51.022;6.818;2023-08-01T07:14:02;13.07;;;4.10;;
6406;SDS011;3236;51.022;6.818;2023-08-01T07:16:31;10.38;;;4.47;;
6406;SDS011;3236;51.022;6.818;2023-08-01T07:18:59;8.23;;;4.47;;
6406;SDS011;3236;51.022;6.818;2023-08-01T07:21:27;9.43;;;3.88;;
6406;SDS011;3236;51.022;6.818;2023-08-01T07:23:54;10.07;;;5.07;;
6406;SDS011;3236;51.022;6.818;2023-08-01T07:26:22;12.38;;;5.15;;
6406;SDS011;3236;51.022;6.818;2023-08-01T07:28:50;10.77;;;4.75;;
6406;SDS011;3236;51.022;6.818;2023-08-01T07:31:17;13.25;;;5.43;;
6406;SDS011;3236;51.022;6.818;2023-08-01T07:33:45;9.90;;;4.30;;
6406;SDS011;3236;51.022;6.818;2023-08-01T07:36:13;10.70;;;4.05;;
6406;SDS011;3236;51.022;6.818;2023-08-01T07:38:40;13.43;;;4.90;;
6406;SDS011;3236;51.022;6.818;2023-08-01T07:41:07;11.50;;;4.82;;
6406;SDS011;3236;51.022;6.818;2023-08-01T07:43:34;9.65;;;4.82;;
6406;SDS011;3236;51.022;6.818;2023-08-01T07:46:01;10.10;;;4.10;;
6406;SDS011;3236;51.022;6.818;2023-08-01T07:48:28;8.35;;;4.00;;
6406;SDS011;3236;51.022;6.818;2023-08-01T07:50:57;13.35;;;4.05;;
6406;SDS011;3236;51.022;6.818;2023-08-01T07:53:24;10.82;;;3.88;;
6406;SDS011;3236;51.022;6.818;2023-08-01T07:55:52;7.53;;;4.35;;
6406;SDS011;3236;51.022;6.818;2023-08-01T07:58:19;14.50;;;4.82;;
6406;SDS011;3236;51.022;6.818;2023-08-01T08:00:46;6.53;;;3.70;;
6406;SDS011;3236;51.022;6.818;2023-08-01T08:03:13;11.50;;;3.45;;
6406;SDS011;3236;51.022;6.818;2023-08-01T08:05:40;6.35;;;3.35;;
6406;SDS011;3236;51.022;6.818;2023-08-01T08:08:09;6.75;;;3.15;;
6406;SDS011;3236;51.022;6.818;2023-08-01T08:10:36;13.13;;;4.50;;
6406;SDS011;3236;51.022;6.818;2023-08-01T08:13:03;5.88;;;3.33;;
6406;SDS011;3236;51.022;6.818;2023-08-01T08:15:30;12.07;;;4.47;;
6406;SDS011;3236;51.022;6.818;2023-08-01T08:17:59;8.93;;;3.00;;
6406;SDS011;3236;51.022;6.818;2023-08-01T08:20:29;9.60;;;4.45;;
6406;SDS011;3236;51.022;6.818;2023-08-01T08:22:56;9.65;;;4.03;;
6406;SDS011;3236;51.022;6.818;2023-08-01T08:25:25;5.38;;;3.15;;
6406;SDS011;3236;51.022;6.818;2023-08-01T08:27:52;4.75;;;3.00;;
6406;SDS011;3236;51.022;6.818;2023-08-01T08:30:19;11.15;;;3.75;;
6406;SDS011;3236;51.022;6.818;2023-08-01T08:32:46;6.13;;;3.15;;
6406;SDS011;3236;51.022;6.818;2023-08-01T08:35:13;8.98;;;2.53;;
6406;SDS011;3236;51.022;6.818;2023-08-01T08:37:40;8.93;;;3.38;;
6406;SDS011;3236;51.022;6.818;2023-08-01T08:40:08;11.75;;;4.63;;
6406;SDS011;3236;51.022;6.818;2023-08-01T08:42:37;10.45;;;3.58;;
6406;SDS011;3236;51.022;6.818;2023-08-01T08:45:06;10.30;;;4.07;;
6406;SDS011;3236;51.022;6.818;2023-08-01T08:47:35;4.93;;;2.83;;
6406;SDS011;3236;51.022;6.818;2023-08-01T08:50:04;5.27;;;2.80;;
6406;SDS011;3236;51.022;6.818;2023-08-01T08:52:32;8.35;;;4.20;;
6406;SDS011;3236;51.022;6.818;2023-08-01T08:54:59;8.45;;;3.35;;
6406;SDS011;3236;51.022;6.818;2023-08-01T08:57:29;10.95;;;3.08;;
6406;SDS011;3236;51.022;6.818;2023-08-01T09:00:00;30.20;;;2.88;;
6406;SDS011;3236;51.022;6.818;2023-08-01T09:02:32;4.88;;;2.85;;
6406;SDS011;3236;51.022;6.818;2023-08-01T09:04:59;7.65;;;2.83;;
6406;SDS011;3236;51.022;6.818;2023-08-01T09:07:27;8.60;;;3.63;;
6406;SDS011;3236;51.022;6.818;2023-08-01T09:10:00;9.90;;;3.05;;
6406;SDS011;3236;51.022;6.818;2023-08-01T09:12:27;6.25;;;2.35;;
6406;SDS011;3236;51.022;6.818;2023-08-01T09:14:56;3.10;;;2.00;;
6406;SDS011;3236;51.022;6.818;2023-08-01T09:17:24;10.93;;;2.58;;
6406;SDS011;3236;51.022;6.818;2023-08-01T09:19:54;4.43;;;2.67;;
6406;SDS011;3236;51.022;6.818;2023-08-01T09:22:24;5.53;;;2.33;;
6406;SDS011;3236;51.022;6.818;2023-08-01T09:24:51;12.55;;;2.75;;
6406;SDS011;3236;51.022;6.818;2023-08-01T09:27:20;7.43;;;2.15;;
6406;SDS011;3236;51.022;6.818;2023-08-01T09:29:47;5.90;;;2.47;;
6406;SDS011;3236;51.022;6.818;2023-08-01T09:32:16;5.93;;;2.28;;
6406;SDS011;3236;51.022;6.818;2023-08-01T09:34:43;4.70;;;2.40;;
6406;SDS011;3236;51.022;6.818;2023-08-01T09:37:11;7.65;;;3.30;;
6406;SDS011;3236;51.022;6.818;2023-08-01T09:39:38;5.00;;;2.28;;
6406;SDS011;3236;51.022;6.818;2023-08-01T09:42:06;5.60;;;2.45;;
6406;SDS011;3236;51.022;6.818;2023-08-01T09:44:35;6.25;;;3.05;;
6406;SDS011;3236;51.022;6.818;2023-08-01T09:47:03;5.95;;;3.50;;
6406;SDS011;3236;51.022;6.818;2023-08-01T09:49:35;3.88;;;2.15;;
6406;SDS011;3236;51.022;6.818;2023-08-01T09:52:02;6.30;;;3.22;;
6406;SDS011;3236;51.022;6.818;2023-08-01T09:54:30;5.78;;;2.40;;
6406;SDS011;3236;51.022;6.818;2023-08-01T09:56:57;4.53;;;2.35;;
6406;SDS011;3236;51.022;6.818;2023-08-01T09:59:25;4.88;;;2.05;;
6406;SDS011;3236;51.022;6.818;2023-08-01T10:01:53;5.93;;;2.67;;
6406;SDS011;3236;51.022;6.818;2023-08-01T10:04:23;10.32;;;2.42;;
6406;SDS011;3236;51.022;6.818;2023-08-01T10:06:57;3.30;;;2.25;;
6406;SDS011;3236;51.022;6.818;2023-08-01T10:09:25;4.18;;;2.78;;
6406;SDS011;3236;51.022;6.818;2023-08-01T10:11:52;7.20;;;2.72;;
6406;SDS011;3236;51.022;6.818;2023-08-01T10:14:22;5.68;;;2.53;;
6406;SDS011;3236;51.022;6.818;2023-08-01T10:16:50;9.75;;;3.35;;
6406;SDS011;3236;51.022;6.818;2023-08-01T10:19:18;3.42;;;2.05;;
6406;SDS011;3236;51.022;6.818;2023-08-01T10:21:46;9.63;;;2.88;;
6406;SDS011;3236;51.022;6.818;2023-08-01T10:24:16;4.68;;;2.50;;
6406;SDS011;3236;51.022;6.818;2023-08-01T10:26:45;8.20;;;2.85;;
6406;SDS011;3236;51.022;6.818;2023-08-01T10:29:12;6.45;;;2.97;;
6406;SDS011;3236;51.022;6.818;2023-08-01T10:31:49;4.70;;;2.25;;
6406;SDS011;3236;51.022;6.818;2023-08-01T10:34:17;4.07;;;2.42;;
6406;SDS011;3236;51.022;6.818;2023-08-01T10:36:53;5.05;;;2.25;;
6406;SDS011;3236;51.022;6.818;2023-08-01T10:39:22;4.15;;;2.17;;
6406;SDS011;3236;51.022;6.818;2023-08-01T10:41:56;6.15;;;3.03;;
6406;SDS011;3236;51.022;6.818;2023-08-01T10:44:25;6.38;;;2.85;;
6406;SDS011;3236;51.022;6.818;2023-08-01T10:46:53;3.42;;;2.17;;
6406;SDS011;3236;51.022;6.818;2023-08-01T10:49:33;6.13;;;2.03;;
6406;SDS011;3236;51.022;6.818;2023-08-01T10:52:01;3.65;;;2.00;;
6406;SDS011;3236;51.022;6.818;2023-08-01T10:54:30;2.00;;;1.60;;
6406;SDS011;3236;51.022;6.818;2023-08-01T10:56:59;3.88;;;1.83;;
6406;SDS011;3236;51.022;6.818;2023-08-01T10:59:27;5.80;;;2.58;;
6406;SDS011;3236;51.022;6.818;2023-08-01T11:01:57;3.30;;;1.90;;
6406;SDS011;3236;51.022;6.818;2023-08-01T11:04:25;5.60;;;2.27;;
6406;SDS011;3236;51.022;6.818;2023-08-01T11:06:53;4.53;;;1.77;;
6406;SDS011;3236;51.022;6.818;2023-08-01T11:09:22;3.47;;;2.40;;
6406;SDS011;3236;51.022;6.818;2023-08-01T11:11:52;5.65;;;2.83;;
6406;SDS011;3236;51.022;6.818;2023-08-01T11:14:21;3.78;;;2.10;;
6406;SDS011;3236;51.022;6.818;2023-08-01T11:16:49;7.07;;;2.13;;
6406;SDS011;3236;51.022;6.818;2023-08-01T11:19:17;2.95;;;1.58;;
6406;SDS011;3236;51.022;6.818;2023-08-01T11:21:45;3.20;;;1.55;;
6406;SDS011;3236;51.022;6.818;2023-08-01T11:24:13;4.18;;;2.00;;
6406;SDS011;3236;51.022;6.818;2023-08-01T11:26:41;3.35;;;1.92;;
6406;SDS011;3236;51.022;6.818;2023-08-01T11:29:10;4.72;;;1.42;;
6406;SDS011;3236;51.022;6.818;2023-08-01T11:31:37;1.67;;;1.58;;
6406;SDS011;3236;51.022;6.818;2023-08-01T11:34:06;3.67;;;1.75;;
6406;SDS011;3236;51.022;6.818;2023-08-01T11:36:35;3.03;;;1.75;;
6406;SDS011;3236;51.022;6.818;2023-08-01T11:39:03;4.38;;;1.48;;
6406;SDS011;3236;51.022;6.818;2023-08-01T11:41:30;7.25;;;2.17;;
6406;SDS011;3236;51.022;6.818;2023-08-01T11:44:01;3.15;;;1.90;;
6406;SDS011;3236;51.022;6.818;2023-08-01T11:48:58;3.42;;;2.00;;
6406;SDS011;3236;51.022;6.818;2023-08-01T11:51:26;5.40;;;2.50;;
6406;SDS011;3236;51.022;6.818;2023-08-01T11:54:00;3.47;;;1.52;;
6406;SDS011;3236;51.022;6.818;2023-08-01T11:56:28;4.47;;;1.73;;
6406;SDS011;3236;51.022;6.818;2023-08-01T11:58:58;4.60;;;1.85;;
6406;SDS011;3236;51.022;6.818;2023-08-01T12:01:26;4.53;;;1.80;;
6406;SDS011;3236;51.022;6.818;2023-08-01T12:03:55;3.92;;;2.47;;
6406;SDS011;3236;51.022;6.818;2023-08-01T12:06:23;6.32;;;2.03;;
6406;SDS011;3236;51.022;6.818;2023-08-01T12:08:51;2.83;;;1.70;;
6406;SDS011;3236;51.022;6.818;2023-08-01T12:11:19;5.22;;;1.73;;
6406;SDS011;3236;51.022;6.818;2023-08-01T12:13:47;5.53;;;1.98;;
6406;SDS011;3236;51.022;6.818;2023-08-01T12:16:14;2.17;;;1.80;;
6406;SDS011;3236;51.022;6.818;2023-08-01T12:18:45;2.60;;;1.88;;
6406;SDS011;3236;51.022;6.818;2023-08-01T12:21:14;3.92;;;2.28;;
6406;SDS011;3236;51.022;6.818;2023-08-01T12:23:41;6.32;;;2.88;;
6406;SDS011;3236;51.022;6.818;2023-08-01T12:26:08;3.45;;;1.90;;
6406;SDS011;3236;51.022;6.818;2023-08-01T12:28:39;3.88;;;2.35;;
6406;SDS011;3236;51.022;6.818;2023-08-01T12:31:06;6.78;;;2.95;;
6406;SDS011;3236;51.022;6.818;2023-08-01T12:33:33;8.23;;;3.45;;
6406;SDS011;3236;51.022;6.818;2023-08-01T12:36:00;7.35;;;3.70;;
6406;SDS011;3236;51.022;6.818;2023-08-01T12:38:29;10.13;;;4.18;;
6406;SDS011;3236;51.022;6.818;2023-08-01T12:40:57;9.43;;;4.55;;
6406;SDS011;3236;51.022;6.818;2023-08-01T12:43:24;9.63;;;3.65;;
6406;SDS011;3236;51.022;6.818;2023-08-01T12:45:51;8.57;;;4.20;;
6406;SDS011;3236;51.022;6.818;2023-08-01T12:48:18;4.95;;;3.55;;
6406;SDS011;3236;51.022;6.818;2023-08-01T12:50:45;8.18;;;4.50;;
6406;SDS011;3236;51.022;6.818;2023-08-01T12:53:13;7.70;;;4.20;;
6406;SDS011;3236;51.022;6.818;2023-08-01T12:55:43;6.30;;;4.10;;
6406;SDS011;3236;51.022;6.818;2023-08-01T12:58:11;5.50;;;3.40;;
6406;SDS011;3236;51.022;6.818;2023-08-01T13:00:38;4.90;;;3.25;;
6406;SDS011;3236;51.022;6.818;2023-08-01T13:03:06;6.60;;;3.40;;
6406;SDS011;3236;51.022;6.818;2023-08-01T13:05:34;9.23;;;4.10;;
6406;SDS011;3236;51.022;6.818;2023-08-01T13:08:01;8.13;;;3.53;;
6406;SDS011;3236;51.022;6.818;2023-08-01T13:10:29;9.05;;;4.05;;
6406;SDS011;3236;51.022;6.818;2023-08-01T13:12:58;10.50;;;3.53;;
6406;SDS011;3236;51.022;6.818;2023-08-01T13:15:25;5.75;;;3.70;;
6406;SDS011;3236;51.022;6.818;2023-08-01T13:17:53;6.43;;;3.00;;
6406;SDS011;3236;51.022;6.818;2023-08-01T13:20:20;5.60;;;3.22;;
6406;SDS011;3236;51.022;6.818;2023-08-01T13:22:48;8.27;;;3.65;;
6406;SDS011;3236;51.022;6.818;2023-08-01T13:25:16;6.60;;;2.63;;
6406;SDS011;3236;51.022;6.818;2023-08-01T13:27:44;7.15;;;2.90;;
6406;SDS011;3236;51.022;6.818;2023-08-01T13:30:16;6.15;;;2.75;;
6406;SDS011;3236;51.022;6.818;2023-08-01T13:32:44;7.95;;;2.92;;
6406;SDS011;3236;51.022;6.818;2023-08-01T13:35:11;4.97;;;2.92;;
6406;SDS011;3236;51.022;6.818;2023-08-01T13:37:38;6.95;;;3.47;;
6406;SDS011;3236;51.022;6.818;2023-08-01T13:40:06;4.38;;;2.88;;
6406;SDS011;3236;51.022;6.818;2023-08-01T13:42:35;6.32;;;2.72;;
6406;SDS011;3236;51.022;6.818;2023-08-01T13:45:02;5.00;;;3.05;;
6406;SDS011;3236;51.022;6.818;2023-08-01T13:47:32;5.00;;;3.10;;
6406;SDS011;3236;51.022;6.818;2023-08-01T13:49:59;8.95;;;3.97;;
6406;SDS011;3236;51.022;6.818;2023-08-01T13:52:26;5.53;;;3.08;;
6406;SDS011;3236;51.022;6.818;2023-08-01T13:54:53;9.60;;;2.72;;
6406;SDS011;3236;51.022;6.818;2023-08-01T13:57:20;6.20;;;3.10;;
6406;SDS011;3236;51.022;6.818;2023-08-01T13:59:48;4.20;;;3.60;;
6406;SDS011;3236;51.022;6.818;2023-08-01T14:02:16;4.63;;;3.22;;
6406;SDS011;3236;51.022;6.818;2023-08-01T14:04:45;6.50;;;3.20;;
6406;SDS011;3236;51.022;6.818;2023-08-01T14:07:15;9.50;;;3.72;;
6406;SDS011;3236;51.022;6.818;2023-08-01T14:09:42;7.03;;;3.13;;
6406;SDS011;3236;51.022;6.818;2023-08-01T14:12:09;6.88;;;3.42;;
6406;SDS011;3236;51.022;6.818;2023-08-01T14:14:36;5.82;;;3.08;;
6406;SDS011;3236;51.022;6.818;2023-08-01T14:17:04;4.72;;;2.70;;
6406;SDS011;3236;51.022;6.818;2023-08-01T14:19:31;7.50;;;3.65;;
6406;SDS011;3236;51.022;6.818;2023-08-01T14:22:00;6.32;;;3.80;;
6406;SDS011;3236;51.022;6.818;2023-08-01T14:24:27;4.43;;;2.78;;
6406;SDS011;3236;51.022;6.818;2023-08-01T14:26:55;5.47;;;2.95;;
6406;SDS011;3236;51.022;6.818;2023-08-01T14:29:28;7.38;;;2.90;;
6406;SDS011;3236;51.022;6.818;2023-08-01T14:31:55;5.57;;;3.30;;
6406;SDS011;3236;51.022;6.818;2023-08-01T14:34:22;10.15;;;3.35;;
6406;SDS011;3236;51.022;6.818;2023-08-01T14:36:50;3.97;;;2.10;;
6406;SDS011;3236;51.022;6.818;2023-08-01T14:39:18;2.15;;;1.80;;
6406;SDS011;3236;51.022;6.818;2023-08-01T14:41:46;5.25;;;2.17;;
6406;SDS011;3236;51.022;6.818;2023-08-01T14:44:13;5.03;;;2.67;;
6406;SDS011;3236;51.022;6.818;2023-08-01T14:46:40;5.90;;;2.22;;
6406;SDS011;3236;51.022;6.818;2023-08-01T14:49:07;4.65;;;1.92;;
6406;SDS011;3236;51.022;6.818;2023-08-01T14:51:34;5.35;;;2.45;;
6406;SDS011;3236;51.022;6.818;2023-08-01T14:54:01;10.18;;;3.15;;
6406;SDS011;3236;51.022;6.818;2023-08-01T14:56:30;5.47;;;2.53;;
6406;SDS011;3236;51.022;6.818;2023-08-01T14:58:57;4.65;;;2.08;;
6406;SDS011;3236;51.022;6.818;2023-08-01T15:01:24;2.08;;;1.40;;
6406;SDS011;3236;51.022;6.818;2023-08-01T15:03:51;4.55;;;1.80;;
6406;SDS011;3236;51.022;6.818;2023-08-01T15:06:19;6.05;;;2.15;;
6406;SDS011;3236;51.022;6.818;2023-08-01T15:08:46;2.75;;;1.38;;
6406;SDS011;3236;51.022;6.818;2023-08-01T15:11:13;4.05;;;2.05;;
6406;SDS011;3236;51.022;6.818;2023-08-01T15:13:44;5.35;;;1.60;;
6406;SDS011;3236;51.022;6.818;2023-08-01T15:16:11;2.40;;;1.40;;
6406;SDS011;3236;51.022;6.818;2023-08-01T15:18:38;2.50;;;1.60;;